Time;durP1;ratioP1;P1;durP2;ratioP2;P2;SDS_P1;SDS_P2;PMS_P1;PMS_P2;Temp;Humidity;BMP_temperature;BMP_pressure;BME280_temperature;BME280_humidity;BME280_pressure;Samples;Min_cycle;Max_cycle;Signal;HPM_P1;HPM_P2
2021/09/14 00:54:07;;;;;;;;;;;;;;;;;;;;;
2021/09/14 00:57:04;;;;;;;4.30;3.00;;;14.20;99.90;;;;;;4840507;29;20425;-95
2021/09/14 00:59:58;;;;;;;4.70;3.53;;;14.20;99.90;;;;;;4826166;29;20520;-94
2021/09/14 01:03:08;;;;;;;7.78;3.42;;;14.20;99.90;;;;;;4809516;29;20425;-96
2021/09/14 01:10:10;;;;;;;4.60;3.60;;;14.20;99.90;;;;;;4868785;29;20464;-96
2021/09/14 01:25:54;;;;;;;6.55;3.95;;;13.70;99.90;;;;;;4888918;29;20451;-96
2021/09/14 01:32:49;;;;;;;5.75;3.78;;;13.50;99.90;;;;;;5038474;23;20445;-96
2021/09/14 02:43:41;;;;;;;5.80;3.85;;;13.80;99.90;;;;;;4917299;23;20454;-94
2021/09/14 02:58:47;;;;;;;5.80;4.50;;;13.50;99.90;;;;;;4895850;29;20441;-95
2021/09/14 03:01:17;;;;;;;8.23;4.53;;;13.40;99.90;;;;;;4881083;29;20421;-95
2021/09/14 03:03:54;;;;;;;7.30;4.40;;;13.50;99.90;;;;;;4880678;23;20505;-94
2021/09/14 03:06:24;;;;;;;7.22;4.15;;;13.40;99.90;;;;;;4861364;29;20465;-94
2021/09/14 03:08:56;;;;;;;5.93;4.20;;;13.50;99.90;;;;;;4932001;23;20465;-95
2021/09/14 03:11:26;;;;;;;5.70;4.38;;;13.40;99.90;;;;;;4897865;29;20443;-94
2021/09/14 03:14:51;;;;;;;5.88;4.63;;;13.30;99.90;;;;;;4898935;29;20403;-95
2021/09/14 03:24:27;;;;;;;7.75;5.53;;;12.90;99.90;;;;;;4894301;29;20443;-96
2021/09/14 03:27:56;;;;;;;7.40;5.00;;;12.80;99.90;;;;;;4970258;23;20431;31
2021/09/14 03:30:41;;;;;;;6.45;5.28;;;12.60;99.90;;;;;;5130532;23;20466;-96
2021/09/14 03:33:33;;;;;;;7.53;5.07;;;12.60;99.90;;;;;;4959423;23;20457;-96
2021/09/14 03:39:31;;;;;;;5.90;5.07;;;13.00;99.90;;;;;;4932067;23;20446;-95
2021/09/14 03:42:01;;;;;;;8.68;5.60;;;13.10;99.90;;;;;;4909763;23;20472;-95
2021/09/14 03:45:00;;;;;;;7.95;5.68;;;13.10;99.90;;;;;;4906880;23;20447;-95
2021/09/14 03:47:39;;;;;;;9.20;5.82;;;13.20;99.90;;;;;;5402167;23;20526;-96
2021/09/14 03:51:04;;;;;;;10.07;5.30;;;13.20;99.90;;;;;;4883451;29;20420;-94
2021/09/14 03:54:18;;;;;;;6.53;5.77;;;13.20;99.90;;;;;;4884682;29;20424;-96
2021/09/14 03:57:50;;;;;;;11.63;6.50;;;12.80;99.90;;;;;;5436362;23;20412;-95
2021/09/14 04:00:59;;;;;;;43.80;26.58;;;12.90;99.90;;;;;;4847466;29;20799;-95
2021/09/14 04:35:21;;;;;;;12.05;7.20;;;13.30;99.90;;;;;;5043819;23;20451;-96
2021/09/14 04:38:08;;;;;;;13.30;7.00;;;13.30;99.90;;;;;;4915257;23;20479;-95
2021/09/14 05:45:42;;;;;;;10.32;8.10;;;13.20;99.90;;;;;;6247394;22;20480;-94
2021/09/14 05:48:10;;;;;;;13.37;8.70;;;13.20;99.90;;;;;;6260477;22;20439;-93
2021/09/14 05:50:37;;;;;;;11.85;8.90;;;13.20;99.90;;;;;;6260717;22;20395;-94
2021/09/14 05:53:04;;;;;;;14.07;8.98;;;13.30;99.90;;;;;;6258456;22;20860;-93
2021/09/14 05:55:31;;;;;;;11.40;8.43;;;13.40;99.90;;;;;;6254080;22;20380;-96
2021/09/14 05:58:01;;;;;;;10.95;9.00;;;13.50;99.90;;;;;;6253157;22;20394;-95
2021/09/14 06:00:28;;;;;;;16.20;11.32;;;13.40;99.90;;;;;;6254416;22;20381;-95
2021/09/14 06:02:56;;;;;;;18.98;10.90;;;13.60;99.90;;;;;;6252620;22;20458;-93
2021/09/14 06:05:23;;;;;;;13.10;10.32;;;13.60;99.90;;;;;;6253816;22;20487;-94
2021/09/14 06:07:51;;;;;;;17.95;10.77;;;13.80;99.90;;;;;;6250895;22;20467;-93
2021/09/14 06:10:18;;;;;;;17.57;11.30;;;13.90;99.90;;;;;;6251236;22;20380;-93
2021/09/14 06:12:45;;;;;;;13.55;10.48;;;13.80;99.90;;;;;;6250409;22;20392;-92
2021/09/14 08:16:41;;;;;;;11.27;5.40;;;19.10;99.90;;;;;;5133035;27;20389;-94
2021/09/14 08:19:08;;;;;;;8.95;5.30;;;18.60;99.90;;;;;;5133256;28;20423;-95
2021/09/14 08:21:35;;;;;;;7.47;5.10;;;18.70;99.90;;;;;;5132170;28;20416;-95
2021/09/14 08:24:03;;;;;;;8.55;4.85;;;18.60;99.90;;;;;;5131018;28;20504;-95
2021/09/14 08:26:30;;;;;;;7.27;5.20;;;18.60;99.90;;;;;;5136357;28;20747;-96
2021/09/14 08:28:59;;;;;;;7.78;5.30;;;18.60;99.90;;;;;;5121991;28;20411;-94
2021/09/14 08:31:28;;;;;;;8.87;5.60;;;18.70;99.90;;;;;;5118516;28;20415;-95
2021/09/14 08:33:55;;;;;;;9.07;5.20;;;18.80;99.90;;;;;;5134013;28;20951;-94
2021/09/14 08:36:22;;;;;;;7.43;5.38;;;18.90;99.90;;;;;;5133598;28;20419;-96
2021/09/14 08:38:52;;;;;;;7.28;5.20;;;18.90;99.90;;;;;;5130278;28;20411;-95
2021/09/14 08:41:20;;;;;;;6.97;4.82;;;19.00;99.90;;;;;;5131137;28;20613;-94
2021/09/14 08:43:49;;;;;;;10.23;5.23;;;19.20;99.90;;;;;;5130224;28;20441;-93
2021/09/14 08:46:18;;;;;;;9.07;5.80;;;19.20;99.90;;;;;;5130914;28;20423;-92
2021/09/14 08:48:46;;;;;;;13.40;5.80;;;19.20;99.90;;;;;;5130880;28;20415;-93
2021/09/14 08:51:13;;;;;;;8.38;5.65;;;19.20;99.90;;;;;;5130868;28;20442;-92
2021/09/14 08:53:40;;;;;;;8.88;5.88;;;19.10;99.90;;;;;;5130406;28;20495;-93
2021/09/14 08:56:10;;;;;;;9.02;5.90;;;19.20;99.90;;;;;;5153524;28;20491;-93
2021/09/14 08:58:38;;;;;;;8.27;5.93;;;19.30;99.90;;;;;;5151549;28;20407;-90
2021/09/14 09:01:13;;;;;;;11.25;6.15;;;19.20;99.90;;;;;;5132785;28;20420;-87
2021/09/14 09:03:41;;;;;;;8.35;5.82;;;19.40;99.90;;;;;;5129987;28;20483;-88
2021/09/14 09:06:08;;;;;;;8.57;5.82;;;19.40;99.90;;;;;;5129954;28;20435;-89
2021/09/14 09:08:36;;;;;;;8.05;5.60;;;19.40;99.90;;;;;;5129669;28;20806;-86
2021/09/14 09:11:11;;;;;;;8.50;5.73;;;19.50;99.90;;;;;;5164641;27;20482;-86
2021/09/14 09:13:44;;;;;;;10.35;6.07;;;19.50;99.90;;;;;;5130653;27;20419;-89
2021/09/14 09:16:26;;;;;;;7.47;5.93;;;19.60;99.90;;;;;;5123474;28;20419;-87
2021/09/14 09:18:57;;;;;;;8.18;6.05;;;19.70;99.90;;;;;;5115975;28;20424;-88
2021/09/14 09:21:57;;;;;;;11.40;5.38;;;19.80;99.90;;;;;;5116530;28;20810;-89
2021/09/14 09:24:24;;;;;;;11.35;5.72;;;20.00;99.90;;;;;;5149864;27;20896;-87
2021/09/14 09:26:51;;;;;;;7.45;5.63;;;20.10;99.90;;;;;;5116826;28;20420;-88
2021/09/14 09:29:23;;;;;;;6.50;5.30;;;20.30;99.90;;;;;;5149718;27;20992;-89
2021/09/14 09:31:51;;;;;;;10.43;5.50;;;20.10;99.90;;;;;;5116383;28;20408;-90
2021/09/14 09:34:26;;;;;;;8.82;5.72;;;20.10;99.90;;;;;;5116644;28;20428;-87
2021/09/14 09:37:08;;;;;;;9.25;5.38;;;19.90;99.90;;;;;;5116706;28;20498;-92
2021/09/14 09:39:47;;;;;;;7.93;5.27;;;19.90;99.90;;;;;;5115750;28;20416;-96
2021/09/14 09:42:16;;;;;;;9.10;5.30;;;20.00;99.90;;;;;;5130119;28;20400;-91
2021/09/14 09:45:18;;;;;;;7.75;4.75;;;20.20;99.90;;;;;;5122829;28;20417;-95
2021/09/14 09:47:52;;;;;;;7.65;4.90;;;20.80;99.90;;;;;;5119893;28;20423;-92
2021/09/14 09:50:20;;;;;;;7.15;4.70;;;20.90;99.90;;;;;;5117861;28;20412;-92
2021/09/14 09:52:47;;;;;;;5.83;4.40;;;20.90;99.90;;;;;;5116126;28;20423;-94
2021/09/14 09:55:14;;;;;;;8.57;4.80;;;21.00;99.90;;;;;;5116760;28;20900;-92
2021/09/14 09:57:41;;;;;;;6.65;4.50;;;21.10;99.90;;;;;;5117314;28;20412;-91
2021/09/14 10:00:13;;;;;;;7.87;4.10;;;21.10;99.90;;;;;;5117693;28;20417;-90
2021/09/14 10:02:51;;;;;;;10.55;4.63;;;21.00;99.90;;;;;;5117605;28;20915;-92
2021/09/14 10:05:39;;;;;;;9.45;5.30;;;21.20;99.90;;;;;;5121787;28;20425;-91
2021/09/14 10:08:28;;;;;;;7.32;5.40;;;21.20;99.90;;;;;;5113237;28;20772;-93
2021/09/14 10:11:01;;;;;;;7.20;4.90;;;21.40;99.90;;;;;;5128944;27;20411;-91
2021/09/14 10:14:19;;;;;;;9.82;4.78;;;21.30;99.90;;;;;;5129578;28;20423;-93
2021/09/14 10:17:58;;;;;;;7.07;4.80;;;21.10;99.90;;;;;;5127455;28;20922;-92
2021/09/14 10:21:54;;;;;;;5.95;4.68;;;21.50;99.90;;;;;;5127565;28;20520;-92
2021/09/14 10:24:26;;;;;;;8.25;5.10;;;21.80;99.90;;;;;;5124404;28;20423;-92
2021/09/14 10:27:52;;;;;;;7.00;5.35;;;21.60;99.90;;;;;;5124476;28;20516;-92
2021/09/14 10:30:38;;;;;;;8.70;5.40;;;21.60;99.90;;;;;;5124499;28;20400;-93
2021/09/14 10:34:19;;;;;;;7.57;5.43;;;21.80;99.90;;;;;;5129384;28;20421;-93
2021/09/14 10:37:17;;;;;;;8.32;5.82;;;21.70;99.90;;;;;;5127361;28;20417;-96
2021/09/14 10:40:14;;;;;;;7.87;5.90;;;21.40;99.90;;;;;;5130772;28;20419;-95
2021/09/14 10:42:44;;;;;;;7.63;5.80;;;21.60;99.90;;;;;;5156270;27;20388;-92
2021/09/14 10:45:16;;;;;;;9.53;5.60;;;21.70;99.90;;;;;;5137384;28;20416;-92
2021/09/14 10:47:48;;;;;;;7.80;6.05;;;21.80;99.90;;;;;;5135735;28;20451;-92
2021/09/14 10:51:12;;;;;;;9.17;6.23;;;21.70;99.90;;;;;;5107429;28;20418;-93
2021/09/14 10:55:09;;;;;;;7.63;6.03;;;21.50;99.90;;;;;;5111796;28;20401;-92
2021/09/14 11:03:09;;;;;;;12.47;6.63;;;21.80;99.90;;;;;;4996901;28;20524;-92
2021/09/14 11:06:27;;;;;;;7.85;5.88;;;22.20;99.90;;;;;;4900329;29;20443;-94
2021/09/14 11:08:59;;;;;;;8.52;5.75;;;22.20;99.90;;;;;;4877773;29;20440;-95
2021/09/14 11:11:33;;;;;;;8.63;5.20;;;22.30;99.90;;;;;;5478700;22;20420;-93
2021/09/14 11:14:05;;;;;;;7.72;5.10;;;22.60;99.90;;;;;;5122152;28;20836;-94
2021/09/14 11:16:37;;;;;;;9.00;4.60;;;22.80;99.90;;;;;;5098559;28;20420;-90
2021/09/14 11:19:04;;;;;;;5.43;4.03;;;22.70;99.90;;;;;;5114405;28;20423;-91
2021/09/14 11:21:31;;;;;;;6.53;4.73;;;22.60;99.90;;;;;;5125524;28;20435;-90
2021/09/14 11:23:58;;;;;;;8.25;4.75;;;22.60;99.90;;;;;;5117045;28;20423;-93
2021/09/14 11:26:25;;;;;;;21.98;5.15;;;22.60;99.90;;;;;;5117043;28;20428;-93
2021/09/14 11:28:58;;;;;;;6.50;5.40;;;22.80;99.90;;;;;;5117404;28;20420;-94
2021/09/14 11:31:31;;;;;;;10.00;6.45;;;22.80;99.90;;;;;;5101495;28;20757;-94
2021/09/14 11:33:59;;;;;;;8.48;5.88;;;23.10;99.90;;;;;;5119335;28;20412;-92
2021/09/14 11:36:26;;;;;;;7.63;5.68;;;23.00;99.90;;;;;;5115181;28;20412;-94
2021/09/14 11:39:12;;;;;;;7.53;5.07;;;22.80;99.90;;;;;;5113541;28;20424;-94
2021/09/14 11:41:38;;;;;;;6.75;5.10;;;22.70;99.90;;;;;;5114914;28;20731;-93
2021/09/14 11:44:07;;;;;;;8.43;5.20;;;22.90;99.90;;;;;;5113937;28;20428;-92
2021/09/14 11:46:51;;;;;;;5.80;4.55;;;23.00;99.90;;;;;;5113044;28;20462;-92
2021/09/14 11:49:25;;;;;;;6.03;4.10;;;23.10;99.90;;;;;;5113350;28;20412;-92
2021/09/14 11:52:00;;;;;;;8.50;4.68;;;23.20;99.90;;;;;;5113923;28;20399;-94
2021/09/14 11:54:34;;;;;;;6.40;4.80;;;23.30;99.90;;;;;;5113540;28;20412;-94
2021/09/14 12:22:20;;;;;;;8.57;5.10;;;25.90;98.80;;;;;;892564;23;22166;-85
2021/09/14 12:24:47;;;;;;;9.15;5.18;;;25.90;99.10;;;;;;4937826;28;20812;-86
2021/09/14 12:27:14;;;;;;;8.80;5.22;;;26.10;98.00;;;;;;4940826;29;20842;-91
2021/09/14 12:29:41;;;;;;;7.47;5.15;;;26.40;98.10;;;;;;4942388;29;20942;-92
2021/09/14 12:32:08;;;;;;;6.38;4.88;;;26.50;97.80;;;;;;4943157;29;20899;-95
2021/09/14 12:34:36;;;;;;;8.40;5.53;;;26.90;98.60;;;;;;4942475;29;20505;-89
2021/09/14 12:37:03;;;;;;;8.57;4.90;;;27.20;95.50;;;;;;4956907;29;20450;-89
2021/09/14 12:39:30;;;;;;;5.55;4.20;;;27.20;95.90;;;;;;4938652;29;20442;-90
2021/09/14 12:41:57;;;;;;;5.55;4.13;;;27.60;95.40;;;;;;4939128;29;20426;-90
2021/09/14 12:44:23;;;;;;;9.63;4.20;;;27.80;94.00;;;;;;4941470;29;20445;-90
2021/09/14 12:46:55;;;;;;;7.47;4.10;;;27.90;94.10;;;;;;4957693;29;20445;-89
2021/09/14 12:49:25;;;;;;;5.63;4.27;;;28.10;93.80;;;;;;4940470;29;20425;-89
2021/09/14 12:51:53;;;;;;;10.65;4.13;;;28.10;91.70;;;;;;4959862;28;20441;-87
2021/09/14 12:54:21;;;;;;;8.63;3.70;;;28.00;91.20;;;;;;4960120;29;20437;-92
2021/09/14 12:56:56;;;;;;;7.32;3.85;;;28.20;92.20;;;;;;4942972;29;20460;-92
2021/09/14 12:59:25;;;;;;;5.73;3.70;;;28.10;91.80;;;;;;4943654;29;20461;-92
2021/09/14 13:01:52;;;;;;;7.15;3.40;;;28.50;91.20;;;;;;4957889;28;20421;-92
2021/09/14 13:04:19;;;;;;;6.43;3.67;;;28.30;87.60;;;;;;4953480;28;20433;-91
2021/09/14 13:06:53;;;;;;;4.35;3.22;;;28.30;86.70;;;;;;4960743;29;20509;-90
2021/09/14 13:09:23;;;;;;;6.25;3.70;;;28.30;91.00;;;;;;4944046;29;20566;-92
2021/09/14 13:11:50;;;;;;;6.35;3.00;;;28.10;85.50;;;;;;4943145;29;20437;-92
2021/09/14 13:17:03;;;;;;;6.47;3.60;;;28.60;82.80;;;;;;4977968;28;20438;-92
2021/09/14 13:19:34;;;;;;;10.43;3.38;;;28.60;79.20;;;;;;4962408;28;20424;-93
2021/09/14 13:22:01;;;;;;;8.27;3.13;;;28.50;80.90;;;;;;4967293;28;20412;-96
2021/09/14 13:29:02;;;;;;;6.90;3.47;;;29.40;82.90;;;;;;4914149;29;20455;-96
2021/09/14 13:32:10;;;;;;;4.63;3.05;;;29.00;82.20;;;;;;5039123;23;20418;-96
2021/09/14 13:34:41;;;;;;;5.63;3.28;;;29.00;79.30;;;;;;4965896;28;20423;-96
2021/09/14 13:37:16;;;;;;;4.00;3.20;;;28.90;77.70;;;;;;4963971;28;20525;-96
2021/09/14 13:39:46;;;;;;;5.43;3.45;;;29.10;79.10;;;;;;4964641;28;20420;-96
2021/09/14 13:42:21;;;;;;;5.85;2.90;;;29.00;77.20;;;;;;4964686;28;20515;-96
2021/09/14 13:47:22;;;;;;;4.75;3.05;;;29.30;78.40;;;;;;4985670;28;20436;-94
2021/09/14 13:49:55;;;;;;;7.32;2.72;;;29.50;76.60;;;;;;4983543;28;20428;-94
2021/09/14 13:52:23;;;;;;;5.50;3.05;;;29.80;76.50;;;;;;4982516;28;20428;-96
2021/09/14 13:54:50;;;;;;;3.60;2.58;;;30.10;76.30;;;;;;4971649;28;20485;-95
2021/09/14 13:57:23;;;;;;;4.90;2.78;;;30.10;74.90;;;;;;4963941;28;20507;-96
2021/09/14 13:59:58;;;;;;;5.22;3.00;;;30.40;74.10;;;;;;4949177;28;20424;-95
2021/09/14 14:02:25;;;;;;;5.47;2.87;;;30.20;71.10;;;;;;4963289;28;20424;-95
2021/09/14 14:04:53;;;;;;;7.35;2.95;;;29.70;74.90;;;;;;4946898;28;20487;-96
2021/09/14 14:07:22;;;;;;;4.85;2.72;;;29.70;74.40;;;;;;4962289;28;20428;-96
2021/09/14 14:09:51;;;;;;;3.58;2.42;;;29.80;73.50;;;;;;4961311;28;20431;-95
2021/09/14 14:12:18;;;;;;;6.00;2.50;;;29.40;69.70;;;;;;4962814;28;20919;-96
2021/09/14 14:14:46;;;;;;;7.13;3.00;;;29.50;72.50;;;;;;4962589;28;20432;-96
2021/09/14 14:17:17;;;;;;;7.25;3.20;;;29.50;72.60;;;;;;4961979;28;20446;-95
2021/09/14 14:19:44;;;;;;;5.30;2.97;;;29.30;71.70;;;;;;4962827;28;20431;-96
2021/09/14 14:22:14;;;;;;;7.47;3.20;;;29.10;73.60;;;;;;4962777;28;20438;-95
2021/09/14 14:24:51;;;;;;;3.58;2.75;;;29.30;72.90;;;;;;4962532;28;20428;-95
2021/09/14 14:27:23;;;;;;;4.95;2.90;;;29.20;74.00;;;;;;4962239;28;20788;-95
2021/09/14 14:29:50;;;;;;;5.57;2.88;;;28.90;72.00;;;;;;4976090;28;20447;-96
2021/09/14 14:32:18;;;;;;;4.22;2.90;;;29.10;74.40;;;;;;4982502;28;20420;-95
2021/09/14 14:34:45;;;;;;;4.20;3.00;;;29.30;73.80;;;;;;4974680;28;20495;-95
2021/09/14 14:37:12;;;;;;;5.55;2.80;;;29.40;72.40;;;;;;4968384;28;20452;-96
2021/09/14 14:39:53;;;;;;;6.45;2.80;;;29.60;71.90;;;;;;4960679;28;20499;-96
2021/09/14 14:42:26;;;;;;;5.50;2.67;;;29.80;68.70;;;;;;4961513;28;20507;-96
2021/09/14 14:44:58;;;;;;;3.75;2.50;;;29.50;70.40;;;;;;4983239;28;20432;-95
2021/09/14 14:47:25;;;;;;;3.70;2.83;;;29.30;70.60;;;;;;4969821;28;20511;-94
2021/09/14 14:49:59;;;;;;;4.38;2.60;;;29.30;71.30;;;;;;4962886;28;20436;-96
2021/09/14 14:52:38;;;;;;;4.37;2.60;;;29.40;72.30;;;;;;4962976;28;20935;-94
2021/09/14 14:55:09;;;;;;;3.75;2.45;;;29.80;72.20;;;;;;4963079;28;20438;-95
2021/09/14 14:57:45;;;;;;;3.60;2.80;;;30.00;69.60;;;;;;4949090;28;20824;-96
2021/09/14 15:00:16;;;;;;;5.35;2.88;;;29.80;69.60;;;;;;4962621;28;20424;-95
2021/09/14 15:02:45;;;;;;;4.38;2.58;;;29.50;70.60;;;;;;4962857;28;20430;-95
2021/09/14 15:05:15;;;;;;;5.82;2.80;;;29.60;72.50;;;;;;4962435;28;20821;-96
2021/09/14 15:07:43;;;;;;;6.53;2.80;;;29.70;72.00;;;;;;4961688;28;20849;-95
2021/09/14 15:10:10;;;;;;;13.68;2.90;;;29.70;70.50;;;;;;4961928;28;20428;-96
2021/09/14 15:12:45;;;;;;;4.73;2.60;;;29.70;71.30;;;;;;4962664;28;20462;-96
2021/09/14 15:15:13;;;;;;;3.95;2.78;;;29.70;71.40;;;;;;4945808;28;20519;-95
2021/09/14 15:17:41;;;;;;;5.37;2.70;;;29.50;71.10;;;;;;4963843;28;20428;-93
2021/09/14 15:20:15;;;;;;;5.38;3.08;;;29.50;70.00;;;;;;4962184;28;20449;-96
2021/09/14 15:22:47;;;;;;;6.47;2.67;;;29.60;71.50;;;;;;4964031;28;20510;-96
2021/09/14 15:25:16;;;;;;;5.45;3.00;;;29.50;70.00;;;;;;4975711;28;20452;-94
2021/09/14 15:27:44;;;;;;;5.43;3.05;;;29.50;71.90;;;;;;4980015;28;20437;-96
2021/09/14 15:30:39;;;;;;;7.57;2.72;;;29.50;73.40;;;;;;4972695;28;20420;-96
2021/09/14 15:33:08;;;;;;;6.32;2.80;;;29.30;70.00;;;;;;4962175;28;20448;-96
2021/09/14 15:35:37;;;;;;;5.95;2.90;;;29.20;72.20;;;;;;4962347;28;20928;-95
2021/09/14 15:38:15;;;;;;;6.40;3.30;;;29.00;72.50;;;;;;4962169;28;20432;-96
2021/09/14 15:40:44;;;;;;;6.68;2.95;;;29.00;72.70;;;;;;4962746;28;20424;-96
2021/09/14 15:43:15;;;;;;;6.45;3.20;;;28.90;73.70;;;;;;4962852;28;20423;-96
2021/09/14 15:45:51;;;;;;;6.65;3.00;;;28.60;74.30;;;;;;4963008;28;20491;-95
2021/09/14 15:48:38;;;;;;;7.13;3.30;;;28.60;71.60;;;;;;4962456;28;20920;-96
2021/09/14 15:51:13;;;;;;;3.77;3.00;;;28.80;72.00;;;;;;4964081;28;20432;-95
2021/09/14 15:53:48;;;;;;;5.40;3.00;;;28.70;71.90;;;;;;4962469;28;20424;-94
2021/09/14 15:56:18;;;;;;;7.65;3.20;;;28.50;71.60;;;;;;4962151;28;20787;-96
2021/09/14 15:58:47;;;;;;;5.53;3.30;;;28.40;74.20;;;;;;4963122;28;20785;-95
2021/09/14 16:01:14;;;;;;;5.03;3.30;;;28.20;73.60;;;;;;4961653;28;20467;-95
2021/09/14 16:03:43;;;;;;;6.77;3.30;;;28.20;72.70;;;;;;4962143;28;20424;-96
2021/09/14 16:06:14;;;;;;;5.32;3.50;;;28.20;73.40;;;;;;4961172;28;20428;-95
2021/09/14 16:08:46;;;;;;;4.78;3.10;;;27.90;76.40;;;;;;4959626;28;20832;-95
2021/09/14 16:11:16;;;;;;;5.53;3.25;;;27.60;77.00;;;;;;4960310;28;20826;-95
2021/09/14 16:13:44;;;;;;;7.05;3.25;;;27.60;79.10;;;;;;4959587;28;20507;-96
2021/09/14 16:16:14;;;;;;;7.38;3.47;;;27.20;80.20;;;;;;4958892;28;20435;-96
2021/09/14 16:18:42;;;;;;;5.30;3.50;;;26.90;79.80;;;;;;4959426;28;20424;-95
2021/09/14 16:21:12;;;;;;;4.68;3.25;;;26.70;81.20;;;;;;4960053;28;20428;-96
2021/09/14 16:23:46;;;;;;;3.67;2.97;;;26.60;82.50;;;;;;4959404;28;20479;-95
2021/09/14 16:26:14;;;;;;;7.20;3.40;;;26.40;81.90;;;;;;4976001;28;20408;-96
2021/09/14 16:28:42;;;;;;;7.47;3.47;;;26.20;83.90;;;;;;4974819;28;20435;-95
2021/09/14 16:31:15;;;;;;;7.28;3.58;;;25.90;84.60;;;;;;4963885;28;20428;-94
2021/09/14 16:33:43;;;;;;;7.97;3.60;;;25.70;86.20;;;;;;4962876;28;20470;-96
2021/09/14 16:36:11;;;;;;;6.33;3.43;;;25.30;86.70;;;;;;4962854;28;20439;-95
2021/09/14 16:38:41;;;;;;;8.73;3.42;;;25.10;89.10;;;;;;4962899;28;20432;-95
2021/09/14 16:41:12;;;;;;;3.88;3.28;;;24.70;89.70;;;;;;4962382;28;20428;-95
2021/09/14 16:43:42;;;;;;;8.13;3.80;;;24.10;90.60;;;;;;4963068;28;20769;-95
2021/09/14 16:46:09;;;;;;;6.43;3.65;;;23.70;90.70;;;;;;4962884;28;20424;-95
2021/09/14 16:48:40;;;;;;;5.83;3.53;;;23.00;92.90;;;;;;4967875;28;20427;-96
2021/09/14 16:51:11;;;;;;;7.43;3.80;;;22.30;94.60;;;;;;4981874;28;20416;-96
2021/09/14 16:53:42;;;;;;;6.82;3.95;;;21.80;96.00;;;;;;4985282;28;20424;-96
2021/09/14 16:56:17;;;;;;;5.90;4.05;;;21.40;97.30;;;;;;4949032;28;20432;-96
2021/09/14 16:58:49;;;;;;;6.10;4.10;;;20.90;99.20;;;;;;4959819;28;20430;-96
2021/09/14 17:01:22;;;;;;;8.43;4.35;;;20.60;99.90;;;;;;4986839;28;20424;-96
2021/09/14 17:03:54;;;;;;;9.10;5.07;;;20.20;99.90;;;;;;4971327;28;20432;-95
2021/09/14 17:06:39;;;;;;;6.57;4.40;;;19.80;99.90;;;;;;4970677;28;20455;-96
2021/09/14 17:09:21;;;;;;;5.50;4.43;;;19.50;99.90;;;;;;4972030;28;20420;-96
2021/09/14 17:11:51;;;;;;;6.88;4.78;;;19.10;99.90;;;;;;4968974;28;20439;-96
2021/09/14 17:14:22;;;;;;;7.93;5.00;;;19.00;99.90;;;;;;4986793;28;20518;-96
2021/09/14 17:16:59;;;;;;;9.65;4.80;;;18.60;99.90;;;;;;4953154;28;20460;-96
2021/09/14 17:19:29;;;;;;;9.23;4.88;;;18.30;99.90;;;;;;4970047;28;20420;-96
2021/09/14 17:22:01;;;;;;;8.48;5.00;;;18.20;99.90;;;;;;4966959;28;20459;-96
2021/09/14 17:24:29;;;;;;;10.35;5.00;;;18.10;99.90;;;;;;4972343;28;20428;-96
2021/09/14 17:27:02;;;;;;;10.40;5.65;;;17.90;99.90;;;;;;5036970;23;20863;-96
2021/09/14 17:29:29;;;;;;;7.30;5.10;;;17.80;99.90;;;;;;4967262;28;20459;-96
2021/09/14 17:32:00;;;;;;;6.50;5.07;;;17.60;99.90;;;;;;4965134;28;20464;-96
